createdAt,value
2018-05-24T00:00:48.611Z,19.25
2018-05-24T00:07:34.382Z,17.40
2018-05-24T00:10:44.716Z,17.80
2018-05-24T00:13:54.830Z,18.87
2018-05-24T00:17:05.552Z,14.68
2018-05-24T00:20:15.136Z,14.32
2018-05-24T00:23:26.486Z,17.90
2018-05-24T00:26:36.362Z,16.60
2018-05-24T00:29:47.479Z,14.77
2018-05-24T00:32:57.849Z,15.93
2018-05-24T00:36:07.942Z,17.08
2018-05-24T00:39:18.063Z,14.82
2018-05-24T00:42:28.051Z,14.32
2018-05-24T00:45:37.968Z,13.20
2018-05-24T00:48:48.298Z,16.62
2018-05-24T00:51:58.125Z,14.93
2018-05-24T00:55:19.540Z,9.50
2018-05-24T00:58:29.626Z,16.17
2018-05-24T01:01:39.611Z,10.48
2018-05-24T01:04:50.787Z,10.20
2018-05-24T01:08:00.987Z,8.45
2018-05-24T01:11:12.080Z,8.65
2018-05-24T01:14:23.014Z,7.62
2018-05-24T01:17:33.117Z,9.43
2018-05-24T01:20:42.950Z,7.32
2018-05-24T01:23:53.750Z,12.00
2018-05-24T01:27:03.695Z,10.15
2018-05-24T01:30:13.561Z,7.93
2018-05-24T01:33:23.541Z,5.70
2018-05-24T01:36:46.289Z,5.78
2018-05-24T01:39:56.172Z,5.20
2018-05-24T01:43:07.120Z,5.37
2018-05-24T01:46:17.428Z,6.30
2018-05-24T01:49:27.782Z,5.10
2018-05-24T01:52:37.540Z,5.03
2018-05-24T01:55:48.319Z,6.43
2018-05-24T01:58:58.251Z,5.50
2018-05-24T02:02:09.602Z,6.20
2018-05-24T02:05:20.060Z,5.82
2018-05-24T02:08:30.970Z,6.30
2018-05-24T02:11:41.548Z,6.97
2018-05-24T02:14:51.424Z,5.18
2018-05-24T02:18:01.575Z,7.53
2018-05-24T02:21:11.504Z,6.40
2018-05-24T02:24:21.456Z,6.60
2018-05-24T02:27:31.404Z,6.18
2018-05-24T02:30:42.432Z,7.12
2018-05-24T02:33:52.423Z,5.80
2018-05-24T02:37:03.075Z,5.35
2018-05-24T02:40:13.346Z,6.78
2018-05-24T02:43:22.844Z,6.68
2018-05-24T02:46:33.297Z,6.25
2018-05-24T02:49:43.779Z,6.53
2018-05-24T02:52:54.195Z,5.50
2018-05-24T02:56:03.999Z,6.87
2018-05-24T02:59:14.076Z,7.15
2018-05-24T03:02:25.476Z,7.47
2018-05-24T03:05:35.760Z,8.30
2018-05-24T03:08:45.647Z,7.00
2018-05-24T03:11:55.561Z,5.57
2018-05-24T03:15:06.484Z,7.55
2018-05-24T03:18:16.371Z,6.30
2018-05-24T03:21:26.181Z,8.40
2018-05-24T03:24:36.155Z,8.05
2018-05-24T03:27:46.545Z,9.38
2018-05-24T03:30:57.244Z,8.45
2018-05-24T03:34:08.205Z,7.43
2018-05-24T03:37:18.628Z,7.80
2018-05-24T03:40:28.709Z,6.90
2018-05-24T03:43:38.724Z,8.63
2018-05-24T03:46:49.406Z,8.43
2018-05-24T03:50:00.607Z,9.55
2018-05-24T03:53:10.368Z,11.50
2018-05-24T03:56:20.427Z,9.70
2018-05-24T04:03:29.589Z,8.70
2018-05-24T04:06:39.564Z,8.93
2018-05-24T04:09:49.673Z,10.52
2018-05-24T04:12:59.947Z,9.32
2018-05-24T04:16:10.292Z,9.40
2018-05-24T04:19:20.944Z,10.77
2018-05-24T04:22:31.261Z,8.57
2018-05-24T04:25:41.860Z,10.32
2018-05-24T04:28:51.962Z,10.07
2018-05-24T04:32:02.200Z,9.50
2018-05-24T04:35:12.278Z,9.98
2018-05-24T04:38:22.340Z,13.13
2018-05-24T04:41:32.402Z,11.27
2018-05-24T04:44:42.351Z,11.35
2018-05-24T04:47:52.422Z,11.18
2018-05-24T04:51:02.981Z,10.77
2018-05-24T04:54:13.207Z,13.48
2018-05-24T04:57:23.164Z,11.70
2018-05-24T05:00:32.726Z,11.23
2018-05-24T05:03:42.863Z,11.75
2018-05-24T05:06:52.836Z,13.93
2018-05-24T05:10:02.706Z,13.05
2018-05-24T05:13:12.698Z,11.98
2018-05-24T05:16:22.593Z,12.00
2018-05-24T05:19:32.832Z,11.57
2018-05-24T05:22:42.823Z,13.65
2018-05-24T05:25:53.147Z,17.37
2018-05-24T05:29:04.247Z,13.00
2018-05-24T05:32:14.758Z,13.77
2018-05-24T05:35:24.818Z,16.37
2018-05-24T05:38:35.699Z,14.65
2018-05-24T05:41:45.879Z,13.55
2018-05-24T05:44:55.896Z,17.70
2018-05-24T05:48:06.924Z,15.20
2018-05-24T05:51:17.059Z,17.58
2018-05-24T05:54:27.706Z,16.83
2018-05-24T05:57:37.758Z,17.62
2018-05-24T06:00:48.489Z,20.67
2018-05-24T06:03:58.698Z,20.00
2018-05-24T06:07:08.522Z,19.42
2018-05-24T06:10:19.249Z,18.58
2018-05-24T06:13:30.061Z,22.15
2018-05-24T06:16:40.064Z,19.77
2018-05-24T06:19:51.252Z,18.25
2018-05-24T06:23:01.043Z,20.50
2018-05-24T06:26:10.898Z,19.85
2018-05-24T06:29:21.586Z,16.67
2018-05-24T06:32:31.343Z,20.70
2018-05-24T06:35:41.635Z,19.70
2018-05-24T06:38:51.524Z,19.40
2018-05-24T06:42:01.513Z,20.15
2018-05-24T06:45:12.524Z,20.65
2018-05-24T06:48:22.518Z,19.12
2018-05-24T06:51:32.640Z,18.08
2018-05-24T06:54:42.886Z,22.15
2018-05-24T06:57:53.399Z,22.65
2018-05-24T07:01:04.187Z,22.13
2018-05-24T07:04:14.585Z,20.60
2018-05-24T07:07:25.480Z,17.50
2018-05-24T07:10:35.539Z,23.73
2018-05-24T07:13:46.318Z,22.70
2018-05-24T07:16:56.543Z,18.70
2018-05-24T07:20:06.437Z,20.08
2018-05-24T07:23:16.366Z,21.33
2018-05-24T07:26:26.711Z,18.85
2018-05-24T07:29:36.617Z,19.70
2018-05-24T07:32:47.550Z,19.02
2018-05-24T07:35:57.823Z,24.60
2018-05-24T07:39:08.822Z,21.40
2018-05-24T07:42:19.012Z,23.92
2018-05-24T07:45:30.612Z,19.75
2018-05-24T07:48:40.943Z,23.83
2018-05-24T07:51:52.339Z,22.00
2018-05-24T07:55:02.292Z,19.70
2018-05-24T07:58:12.199Z,22.83
2018-05-24T08:01:22.324Z,23.42
2018-05-24T08:04:33.044Z,22.02
2018-05-24T08:07:43.480Z,19.05
2018-05-24T08:10:54.239Z,22.52
2018-05-24T08:14:04.827Z,20.80
2018-05-24T08:17:14.796Z,21.02
2018-05-24T08:20:25.776Z,23.35
2018-05-24T08:23:35.607Z,21.15
2018-05-24T08:26:45.887Z,24.42
2018-05-24T08:29:56.580Z,22.00
2018-05-24T08:33:07.202Z,20.88
2018-05-24T08:36:17.705Z,25.08
2018-05-24T08:39:27.654Z,26.75
2018-05-24T08:42:37.770Z,24.17
2018-05-24T08:45:48.339Z,22.58
2018-05-24T08:48:58.422Z,23.50
2018-05-24T08:52:08.527Z,21.92
2018-05-24T08:55:19.258Z,25.42
2018-05-24T08:58:29.153Z,28.48
2018-05-24T09:01:39.365Z,25.12
2018-05-24T09:04:49.899Z,25.25
2018-05-24T09:08:00.177Z,27.23
2018-05-24T09:11:10.136Z,28.05
2018-05-24T09:14:20.027Z,31.30
2018-05-24T09:17:30.083Z,27.27
2018-05-24T09:20:40.235Z,27.73
2018-05-24T09:23:51.578Z,28.48
2018-05-24T09:27:01.764Z,26.92
2018-05-24T09:30:12.351Z,23.67
2018-05-24T09:33:22.681Z,24.80
2018-05-24T09:36:33.198Z,28.45
2018-05-24T09:39:43.236Z,28.27
2018-05-24T09:42:54.719Z,29.48
2018-05-24T09:46:04.951Z,30.52
2018-05-24T09:49:14.934Z,28.12
2018-05-24T09:52:26.034Z,28.67
2018-05-24T09:55:36.559Z,30.30
2018-05-24T09:58:47.747Z,29.27
2018-05-24T10:01:58.159Z,35.83
2018-05-24T10:05:08.376Z,28.12
2018-05-24T10:08:18.161Z,34.22
2018-05-24T10:11:28.705Z,30.67
2018-05-24T10:14:38.605Z,31.20
2018-05-24T10:17:49.850Z,28.15
2018-05-24T10:20:59.800Z,29.37
2018-05-24T10:24:09.745Z,30.30
2018-05-24T10:27:19.643Z,31.55
2018-05-24T10:30:29.497Z,30.42
2018-05-24T10:33:40.963Z,23.55
2018-05-24T10:36:51.968Z,26.40
2018-05-24T10:40:01.999Z,26.12
2018-05-24T10:43:12.917Z,27.35
2018-05-24T10:46:22.854Z,25.95
2018-05-24T10:49:33.118Z,28.95
2018-05-24T10:52:43.949Z,27.73
2018-05-24T10:55:53.825Z,22.77
2018-05-24T10:59:04.434Z,27.98
2018-05-24T11:02:14.261Z,27.62
2018-05-24T11:05:24.546Z,25.67
2018-05-24T11:08:35.027Z,28.42
2018-05-24T11:11:45.323Z,23.73
2018-05-24T11:14:55.537Z,30.67
2018-05-24T11:18:05.312Z,31.10
2018-05-24T11:21:15.903Z,27.48
2018-05-24T11:24:27.587Z,31.62
2018-05-24T11:27:38.329Z,33.80
2018-05-24T11:30:48.907Z,25.02
2018-05-24T11:37:34.257Z,31.12
2018-05-24T11:40:45.039Z,28.92
2018-05-24T11:43:54.800Z,24.67
2018-05-24T11:47:15.938Z,25.92
2018-05-24T11:50:32.740Z,23.92
2018-05-24T11:57:18.759Z,23.12
2018-05-24T12:00:28.892Z,26.98
2018-05-24T12:03:38.773Z,23.70
2018-05-24T12:06:48.796Z,22.87
2018-05-24T12:09:58.864Z,22.05
2018-05-24T12:13:11.049Z,25.12
2018-05-24T12:16:21.144Z,23.48
2018-05-24T12:19:31.916Z,20.17
2018-05-24T12:22:42.521Z,24.80
2018-05-24T12:25:52.724Z,27.45
2018-05-24T12:29:03.330Z,19.80
2018-05-24T12:32:13.616Z,23.80
2018-05-24T12:35:23.687Z,29.12
2018-05-24T12:38:34.632Z,25.67
2018-05-24T12:41:44.936Z,26.27
2018-05-24T12:44:55.907Z,27.02
2018-05-24T12:48:05.952Z,22.48
2018-05-24T12:51:15.816Z,22.77
2018-05-24T12:54:26.255Z,27.35
2018-05-24T12:57:36.249Z,25.75
2018-05-24T13:00:46.123Z,25.40
2018-05-24T13:03:57.060Z,27.77
2018-05-24T13:07:07.195Z,21.92
2018-05-24T13:10:17.971Z,22.98
2018-05-24T13:13:27.725Z,24.83
2018-05-24T13:16:37.528Z,23.98
2018-05-24T13:19:47.476Z,24.37
2018-05-24T13:22:57.444Z,18.52
2018-05-24T13:26:07.616Z,24.08
2018-05-24T13:29:17.420Z,27.17
2018-05-24T13:32:27.366Z,23.65
2018-05-24T13:35:37.124Z,20.25
2018-05-24T13:38:47.222Z,25.35
2018-05-24T13:42:00.574Z,30.37
2018-05-24T13:45:11.728Z,25.52
2018-05-24T13:48:22.298Z,22.50
2018-05-24T13:51:32.224Z,22.48
2018-05-24T13:54:42.471Z,24.98
2018-05-24T13:57:53.154Z,22.92
2018-05-24T14:01:03.316Z,26.10
2018-05-24T14:04:13.635Z,21.50
2018-05-24T14:07:23.548Z,20.73
2018-05-24T14:10:34.381Z,23.55
2018-05-24T14:13:44.309Z,24.95
2018-05-24T14:16:54.542Z,24.58
2018-05-24T14:20:04.071Z,21.83
2018-05-24T14:23:14.461Z,22.15
2018-05-24T14:26:25.051Z,21.35
2018-05-24T14:29:35.119Z,21.40
2018-05-24T14:32:45.999Z,25.55
2018-05-24T14:35:57.275Z,25.60
2018-05-24T14:39:07.562Z,21.48
2018-05-24T14:42:18.186Z,25.75
2018-05-24T14:45:28.220Z,24.05
2018-05-24T14:48:38.165Z,21.90
2018-05-24T14:51:48.035Z,25.70
2018-05-24T14:54:59.072Z,24.50
2018-05-24T14:58:08.901Z,25.60
2018-05-24T15:01:19.442Z,26.40
2018-05-24T15:04:30.582Z,28.05
2018-05-24T15:07:41.331Z,21.70
2018-05-24T15:10:51.702Z,26.65
2018-05-24T15:14:01.941Z,29.80
2018-05-24T15:17:11.960Z,27.65
2018-05-24T15:20:22.738Z,23.83
2018-05-24T15:23:33.009Z,27.83
2018-05-24T15:26:43.704Z,29.10
2018-05-24T15:29:53.757Z,24.48
2018-05-24T15:33:03.548Z,32.20
2018-05-24T15:36:15.046Z,31.65
2018-05-24T15:39:24.999Z,25.00
2018-05-24T15:42:34.877Z,28.58
2018-05-24T15:45:44.806Z,25.12
2018-05-24T15:48:55.562Z,29.73
2018-05-24T15:52:05.676Z,29.73
2018-05-24T15:55:17.458Z,32.15
2018-05-24T15:58:28.148Z,28.73
2018-05-24T16:01:38.935Z,35.22
2018-05-24T16:04:49.293Z,26.50
2018-05-24T16:07:59.123Z,30.70
2018-05-24T16:11:08.974Z,32.97
2018-05-24T16:14:19.136Z,25.88
2018-05-24T16:17:29.170Z,33.75
2018-05-24T16:20:40.075Z,32.17
2018-05-24T16:23:51.149Z,28.92
2018-05-24T16:27:01.369Z,32.78
2018-05-24T16:30:12.708Z,32.45
2018-05-24T16:33:24.079Z,33.67
2018-05-24T16:36:34.243Z,30.62
2018-05-24T16:39:45.513Z,31.98
2018-05-24T16:42:55.820Z,28.90
2018-05-24T16:46:05.511Z,35.47
2018-05-24T16:49:15.709Z,33.47
2018-05-24T16:52:26.677Z,28.83
2018-05-24T16:55:36.903Z,33.75
2018-05-24T16:58:47.878Z,25.23
2018-05-24T17:01:57.796Z,15.95
2018-05-24T17:05:08.294Z,10.25
2018-05-24T17:08:19.010Z,10.27
2018-05-24T17:11:30.002Z,8.48
2018-05-24T17:14:40.408Z,10.10
2018-05-24T17:17:50.594Z,7.97
2018-05-24T17:21:00.729Z,10.88
2018-05-24T17:24:10.957Z,11.25
2018-05-24T17:27:21.055Z,12.88
2018-05-24T17:30:31.357Z,8.48
2018-05-24T17:33:41.371Z,8.95
2018-05-24T17:36:51.484Z,12.37
2018-05-24T17:40:01.547Z,10.30
2018-05-24T17:43:12.138Z,9.85
2018-05-24T17:46:22.656Z,12.15
2018-05-24T17:49:32.497Z,9.20
2018-05-24T17:52:43.067Z,7.80
2018-05-24T17:55:53.488Z,7.95
2018-05-24T17:59:04.029Z,8.23
2018-05-24T18:02:14.147Z,8.93
2018-05-24T18:05:23.983Z,9.32
2018-05-24T18:08:33.839Z,8.18
2018-05-24T18:11:43.896Z,13.15
2018-05-24T18:14:53.854Z,8.65
2018-05-24T18:18:04.812Z,8.85
2018-05-24T18:21:14.808Z,7.40
2018-05-24T18:24:25.666Z,7.87
2018-05-24T18:27:35.676Z,7.75
2018-05-24T18:30:45.635Z,7.20
2018-05-24T18:33:55.900Z,8.32
2018-05-24T18:37:05.821Z,7.32
2018-05-24T18:40:15.817Z,6.93
2018-05-24T18:43:25.912Z,8.23
2018-05-24T18:46:36.517Z,7.10
2018-05-24T18:49:47.039Z,8.05
2018-05-24T18:52:57.080Z,9.43
2018-05-24T18:56:07.584Z,7.28
2018-05-24T18:59:18.923Z,7.45
2018-05-24T19:02:29.291Z,6.15
2018-05-24T19:05:39.973Z,8.02
2018-05-24T19:08:49.819Z,7.80
2018-05-24T19:11:59.782Z,7.28
2018-05-24T19:15:10.438Z,6.10
2018-05-24T19:18:20.365Z,6.07
2018-05-24T19:21:30.987Z,7.20
2018-05-24T19:24:41.234Z,5.78
2018-05-24T19:27:51.959Z,6.00
2018-05-24T19:31:02.376Z,5.35
2018-05-24T19:34:12.864Z,5.75
2018-05-24T19:37:22.618Z,5.78
2018-05-24T19:40:34.495Z,5.32
2018-05-24T19:43:44.961Z,5.90
2018-05-24T19:46:55.108Z,6.07
2018-05-24T19:50:05.846Z,5.18
2018-05-24T19:53:16.063Z,4.75
2018-05-24T19:56:26.119Z,5.35
2018-05-24T19:59:36.579Z,7.00
2018-05-24T20:02:47.129Z,4.82
2018-05-24T20:05:57.647Z,5.53
2018-05-24T20:09:07.757Z,6.30
2018-05-24T20:12:17.474Z,5.60
2018-05-24T20:15:27.356Z,4.95
2018-05-24T20:18:37.260Z,6.60
2018-05-24T20:21:47.049Z,7.45
2018-05-24T20:24:56.971Z,6.03
2018-05-24T20:28:06.941Z,9.85
2018-05-24T20:31:17.396Z,6.82
2018-05-24T20:34:27.778Z,5.85
2018-05-24T20:37:37.534Z,7.60
2018-05-24T20:40:48.327Z,6.32
2018-05-24T20:43:58.106Z,6.37
2018-05-24T20:47:08.674Z,7.93
2018-05-24T20:50:18.890Z,7.00
2018-05-24T20:53:28.786Z,7.95
2018-05-24T20:56:39.008Z,7.18
2018-05-24T20:59:50.299Z,7.32
2018-05-24T21:03:00.452Z,6.43
2018-05-24T21:06:11.378Z,7.20
2018-05-24T21:09:22.064Z,8.93
2018-05-24T21:12:32.813Z,9.27
2018-05-24T21:15:43.500Z,9.45
2018-05-24T21:18:55.011Z,8.63
2018-05-24T21:22:05.494Z,6.53
2018-05-24T21:25:16.160Z,9.13
2018-05-24T21:28:26.380Z,8.45
2018-05-24T21:31:36.698Z,8.50
2018-05-24T21:34:46.565Z,9.45
2018-05-24T21:37:57.390Z,9.25
2018-05-24T21:41:08.522Z,8.90
2018-05-24T21:44:19.580Z,9.57
2018-05-24T21:47:29.973Z,7.15
2018-05-24T21:50:39.693Z,6.93
2018-05-24T21:53:49.388Z,8.40
2018-05-24T21:56:59.967Z,6.60
2018-05-24T22:00:10.598Z,7.55
2018-05-24T22:03:21.702Z,7.50
2018-05-24T22:06:32.457Z,8.70
2018-05-24T22:09:42.721Z,8.30
2018-05-24T22:12:52.786Z,8.95
2018-05-24T22:19:39.171Z,7.00
2018-05-24T22:22:49.509Z,7.72
2018-05-24T22:26:01.857Z,11.20
2018-05-24T22:29:11.976Z,7.65
2018-05-24T22:32:27.917Z,7.57
2018-05-24T22:35:37.857Z,8.20
2018-05-24T22:38:47.808Z,8.55
2018-05-24T22:41:57.676Z,7.10
2018-05-24T22:48:44.262Z,9.35
2018-05-24T22:51:54.027Z,9.63
2018-05-24T22:55:04.085Z,9.95
2018-05-24T22:58:15.038Z,9.30
2018-05-24T23:01:25.716Z,8.20
2018-05-24T23:04:35.686Z,11.98
2018-05-24T23:07:45.499Z,8.10
2018-05-24T23:14:31.456Z,8.32
2018-05-24T23:17:41.445Z,8.00
2018-05-24T23:20:51.700Z,11.27
2018-05-24T23:24:01.916Z,9.27
2018-05-24T23:27:11.787Z,8.95
2018-05-24T23:30:22.456Z,8.30
2018-05-24T23:33:32.455Z,8.38
2018-05-24T23:36:42.806Z,9.32
2018-05-24T23:39:52.822Z,7.97
2018-05-24T23:43:02.854Z,9.93
2018-05-24T23:46:12.845Z,10.18
2018-05-24T23:49:22.768Z,10.65
2018-05-24T23:52:32.923Z,10.50
2018-05-24T23:55:42.901Z,9.68
2018-05-24T23:58:53.180Z,10.23
